Notice: Undefined index: language in /home/u908952976/domains/airgaviota-va.com/public_html/vam/index.php on line 25
AirGaviota-VA

... VIRTUAL FLIGHT...OUR PASSION



 FLIGHT DETAILS
Pilot: GVT462 Peter Voksan Aircraft: AN24_FELIS CUBANA Distance: 89NM
Departure MUNG Arrival MUHA Duration 00:25
Validation Validated Type Charter Tail Number GV-AAN
ZFW 17463 Block Fuel/Initial FOB 535/0 Flight Fuel 388
Passengers 20 Cargo 0 Alternate MUVR
Departure Time 1120 Cruise Speed 200 Flight Level 5000
Flight Type IFR Aircraft Type AN24 Weight Unit Kg
Date 19-04-2020 Pilot Comments Network IVAO
Crashed No Validator Comments Flight Rating -110

 ROUTE
ROUTE UHA
REMARKS
 FLIGHT FAILURES
Crashed OK Beacon off & Engine Running OK KIAS Above 250 below 10000 FT OK
Lights OFF below 10000 FT Fail Lights ON above 10000 FT OK Stall OK
Overspeed OK Flight paused OK Refueling OK
Slew detected OK Taxi & Taxi lights off Fail Take off & lights off OK
Landing & lights off OK Landed in not planned airport OK Taxi Speed Fail
Wrong altimeter in Take off OK Wrong altimeter in Landing OK
 LANDING ANALYSIS
Landing wind 81º/5 kt Landing heading 255
Landing VS: -82.28 ft/min Landing IAS: 100.02 kt
Landing Force G 1 G Landing Bank -1.5
Landing Pitch 0 Landing Flaps 38
Navigation Lights ON Landing Lights ON
Beacon Lights ON Strobe Lights OFF
 FLIGHT MAP
 ALTITUDE CHART
 FLIGHT FINANCIAL REPORT
 MAIN EVENTS
DATE EVENTIASALTITUDE
2020-04-19 13:07:32 SIM ACARS version 1.4.1090
2020-04-19 13:07:32 BOARDING090
2020-04-19 13:08:22 STARTING ENGINE 3 090
2020-04-19 13:10:11 STARTING ENGINE 1 090
2020-04-19 13:11:01 STARTING ENGINE 2 090
2020-04-19 13:12:09 STOPPING ENGINE 3 090
2020-04-19 13:15:26 FLAPS EXTENSION 1 % 090
2020-04-19 13:15:26 FLAPS EXTENSION 2 % 090
2020-04-19 13:15:26 FLAPS EXTENSION 3 % 090
2020-04-19 13:15:26 FLAPS EXTENSION 5 % 090
2020-04-19 13:15:26 FLAPS EXTENSION 6 % 090
2020-04-19 13:15:26 FLAPS EXTENSION 7 % 090
2020-04-19 13:15:27 FLAPS EXTENSION 8 % 090
2020-04-19 13:15:27 FLAPS EXTENSION 10 % 090
2020-04-19 13:15:27 FLAPS EXTENSION 11 % 090
2020-04-19 13:15:27 FLAPS EXTENSION 12 % 090
2020-04-19 13:15:27 FLAPS EXTENSION 13 % 090
2020-04-19 13:15:27 FLAPS EXTENSION 14 % 090
2020-04-19 13:15:28 FLAPS EXTENSION 17 % 090
2020-04-19 13:15:28 FLAPS EXTENSION 18 % 090
2020-04-19 13:15:28 FLAPS EXTENSION 19 % 090
2020-04-19 13:15:28 FLAPS EXTENSION 23 % 090
2020-04-19 13:15:29 FLAPS EXTENSION 24 % 090
2020-04-19 13:15:29 FLAPS EXTENSION 25 % 090
2020-04-19 13:15:29 FLAPS EXTENSION 26 % 090
2020-04-19 13:15:29 FLAPS EXTENSION 27 % 090
2020-04-19 13:15:29 FLAPS EXTENSION 28 % 090
2020-04-19 13:15:29 FLAPS EXTENSION 29 % 090
2020-04-19 13:15:31 FLAPS EXTENSION 30 % 090
2020-04-19 13:15:31 FLAPS EXTENSION 32 % 090
2020-04-19 13:15:31 FLAPS EXTENSION 33 % 090
2020-04-19 13:15:31 FLAPS EXTENSION 35 % 090
2020-04-19 13:15:31 FLAPS EXTENSION 36 % 090
2020-04-19 13:15:31 FLAPS EXTENSION 36 % 090
2020-04-19 13:17:35 TAXI TO THE RWY 990
2020-04-19 13:17:35 TAXING WITH TAXI LIGHTS OFF990
2020-04-19 13:20:12 ROLLING FOR TAKE OFF4590
2020-04-19 13:20:33 TAKE OFF11494
2020-04-19 13:20:38 GEAR UP115163
2020-04-19 13:21:17 FLAPS EXTENSION 35 % 981106
2020-04-19 13:21:17 FLAPS EXTENSION 31 % 981114
2020-04-19 13:21:18 FLAPS EXTENSION 30 % 981118
2020-04-19 13:21:18 FLAPS EXTENSION 27 % 981125
2020-04-19 13:21:47 FLAPS EXTENSION 27 % 1191607
2020-04-19 13:21:47 FLAPS EXTENSION 25 % 1191612
2020-04-19 13:21:47 FLAPS EXTENSION 24 % 1191616
2020-04-19 13:21:47 FLAPS EXTENSION 22 % 1191620
2020-04-19 13:21:47 FLAPS EXTENSION 21 % 1191624
2020-04-19 13:21:47 FLAPS EXTENSION 19 % 1191628
2020-04-19 13:21:48 FLAPS EXTENSION 18 % 1201632
2020-04-19 13:21:48 FLAPS EXTENSION 16 % 1201634
2020-04-19 13:21:48 FLAPS EXTENSION 15 % 1201639
2020-04-19 13:21:48 FLAPS EXTENSION 14 % 1201643
2020-04-19 13:21:48 FLAPS EXTENSION 12 % 1201647
2020-04-19 13:21:48 FLAPS EXTENSION 11 % 1201650
2020-04-19 13:21:49 FLAPS EXTENSION 10 % 1211654
2020-04-19 13:21:49 FLAPS EXTENSION 8 % 1211657
2020-04-19 13:21:49 FLAPS EXTENSION 7 % 1211660
2020-04-19 13:21:49 FLAPS EXTENSION 6 % 1211663
2020-04-19 13:21:49 FLAPS EXTENSION 5 % 1221666
2020-04-19 13:21:50 FLAPS EXTENSION 4 % 1221670
2020-04-19 13:21:57 FLAPS EXTENSION 3 % 1321762
2020-04-19 13:21:57 FLAPS EXTENSION 2 % 1321765
2020-04-19 13:21:57 FLAPS EXTENSION 0 % 1331767
2020-04-19 13:21:57 FLAPS EXTENSION 0 % 1331769
2020-04-19 13:22:17 LIGHTS OFF BELOW 10000 ft1382234
2020-04-19 13:25:03 CRUISE1985010
2020-04-19 13:34:33 DESCEND2194902
2020-04-19 13:36:23 CRUISE2204034
2020-04-19 13:39:43 CLIMBING1984141
2020-04-19 13:40:23 CRUISE1924245
2020-04-19 13:40:50 GEAR DOWN1794106
2020-04-19 13:41:03 DESCEND1653908
2020-04-19 13:41:24 FLAPS EXTENSION 1 % 1553394
2020-04-19 13:41:24 FLAPS EXTENSION 2 % 1553390
2020-04-19 13:41:25 FLAPS EXTENSION 4 % 1553384
2020-04-19 13:41:25 FLAPS EXTENSION 5 % 1553379
2020-04-19 13:41:25 FLAPS EXTENSION 6 % 1553374
2020-04-19 13:41:25 FLAPS EXTENSION 8 % 1553368
2020-04-19 13:41:25 FLAPS EXTENSION 9 % 1553364
2020-04-19 13:41:26 FLAPS EXTENSION 10 % 1553356
2020-04-19 13:41:32 FLAPS EXTENSION 12 % 1533183
2020-04-19 13:41:32 FLAPS EXTENSION 13 % 1533179
2020-04-19 13:41:33 FLAPS EXTENSION 16 % 1533175
2020-04-19 13:41:33 FLAPS EXTENSION 17 % 1533175
2020-04-19 13:41:59 FLAPS EXTENSION 17 % 1372642
2020-04-19 13:41:59 FLAPS EXTENSION 18 % 1372638
2020-04-19 13:41:59 FLAPS EXTENSION 19 % 1372637
2020-04-19 13:41:59 FLAPS EXTENSION 21 % 1372635
2020-04-19 13:41:59 FLAPS EXTENSION 22 % 1372632
2020-04-19 13:42:00 FLAPS EXTENSION 23 % 1372630
2020-04-19 13:42:00 FLAPS EXTENSION 24 % 1362628
2020-04-19 13:42:00 FLAPS EXTENSION 26 % 1362625
2020-04-19 13:42:00 FLAPS EXTENSION 27 % 1362623
2020-04-19 13:42:00 FLAPS EXTENSION 28 % 1362621
2020-04-19 13:42:23 FLAPS EXTENSION 29 % 1272292
2020-04-19 13:42:23 FLAPS EXTENSION 30 % 1272288
2020-04-19 13:42:23 FLAPS EXTENSION 31 % 1272286
2020-04-19 13:42:23 FLAPS EXTENSION 32 % 1272283
2020-04-19 13:42:23 FLAPS EXTENSION 33 % 1272280
2020-04-19 13:42:24 FLAPS EXTENSION 35 % 1272277
2020-04-19 13:42:24 FLAPS EXTENSION 36 % 1272274
2020-04-19 13:42:24 FLAPS EXTENSION 37 % 1272273
2020-04-19 13:42:27 FLAPS EXTENSION 37 % 1282228
2020-04-19 13:42:27 FLAPS EXTENSION 40 % 1272224
2020-04-19 13:42:28 FLAPS EXTENSION 41 % 1272222
2020-04-19 13:42:28 FLAPS EXTENSION 43 % 1272221
2020-04-19 13:42:28 FLAPS EXTENSION 44 % 1272219
2020-04-19 13:42:28 FLAPS EXTENSION 46 % 1272217
2020-04-19 13:42:28 FLAPS EXTENSION 47 % 1272215
2020-04-19 13:42:29 FLAPS EXTENSION 48 % 1262214
2020-04-19 13:42:29 FLAPS EXTENSION 49 % 1262213
2020-04-19 13:42:38 FLAPS EXTENSION 49 % 1152159
2020-04-19 13:42:38 FLAPS EXTENSION 50 % 1152157
2020-04-19 13:42:38 FLAPS EXTENSION 51 % 1152154
2020-04-19 13:42:38 FLAPS EXTENSION 53 % 1152152
2020-04-19 13:42:38 FLAPS EXTENSION 54 % 1152149
2020-04-19 13:42:38 FLAPS EXTENSION 55 % 1142147
2020-04-19 13:42:39 FLAPS EXTENSION 56 % 1142144
2020-04-19 13:42:39 FLAPS EXTENSION 57 % 1142141
2020-04-19 13:42:39 FLAPS EXTENSION 59 % 1142138
2020-04-19 13:42:39 FLAPS EXTENSION 60 % 1142134
2020-04-19 13:42:39 FLAPS EXTENSION 62 % 1142130
2020-04-19 13:42:40 FLAPS EXTENSION 63 % 1142128
2020-04-19 13:42:40 FLAPS EXTENSION 64 % 1142124
2020-04-19 13:42:40 FLAPS EXTENSION 65 % 1142123
2020-04-19 13:42:40 FLAPS EXTENSION 67 % 1132118
2020-04-19 13:42:40 FLAPS EXTENSION 68 % 1132116
2020-04-19 13:42:40 FLAPS EXTENSION 69 % 1132113
2020-04-19 13:42:41 FLAPS EXTENSION 70 % 1132110
2020-04-19 13:42:41 FLAPS EXTENSION 71 % 1132106
2020-04-19 13:42:41 FLAPS EXTENSION 73 % 1132103
2020-04-19 13:42:41 FLAPS EXTENSION 74 % 1132101
2020-04-19 13:42:41 FLAPS EXTENSION 75 % 1132098
2020-04-19 13:42:41 FLAPS EXTENSION 75 % 1132095
2020-04-19 13:42:42 FLAPS EXTENSION 76 % 1122093
2020-04-19 13:42:42 FLAPS EXTENSION 77 % 1122090
2020-04-19 13:42:42 FLAPS EXTENSION 79 % 1122086
2020-04-19 13:42:42 FLAPS EXTENSION 80 % 1122083
2020-04-19 13:42:42 FLAPS EXTENSION 81 % 1122080
2020-04-19 13:42:42 FLAPS EXTENSION 81 % 1122078
2020-04-19 13:42:52 FLAPS EXTENSION 81 % 1111945
2020-04-19 13:42:52 FLAPS EXTENSION 83 % 1111942
2020-04-19 13:42:52 FLAPS EXTENSION 84 % 1111941
2020-04-19 13:42:52 FLAPS EXTENSION 85 % 1111940
2020-04-19 13:42:52 FLAPS EXTENSION 86 % 1111937
2020-04-19 13:42:53 FLAPS EXTENSION 88 % 1111936
2020-04-19 13:42:53 FLAPS EXTENSION 89 % 1111938
2020-04-19 13:42:53 FLAPS EXTENSION 90 % 1111937
2020-04-19 13:42:53 FLAPS EXTENSION 91 % 1111932
2020-04-19 13:42:53 FLAPS EXTENSION 92 % 1111931
2020-04-19 13:42:53 FLAPS EXTENSION 93 % 1111930
2020-04-19 13:42:53 FLAPS EXTENSION 94 % 1101931
2020-04-19 13:42:54 FLAPS EXTENSION 95 % 1101930
2020-04-19 13:42:54 FLAPS EXTENSION 96 % 1101926
2020-04-19 13:42:54 FLAPS EXTENSION 98 % 1101925
2020-04-19 13:42:54 FLAPS EXTENSION 99 % 1101924
2020-04-19 13:42:54 FLAPS EXTENSION 100 % 1101923
2020-04-19 13:42:54 FLAPS EXTENSION 100 % 1101926
2020-04-19 13:44:43 CRUISE104979
2020-04-19 13:45:13 DESCEND105678
2020-04-19 13:46:23 LANDING100223
2020-04-19 13:46:51 FLAPS EXTENSION 99 % 45220
2020-04-19 13:46:51 FLAPS EXTENSION 98 % 45220
2020-04-19 13:46:51 FLAPS EXTENSION 97 % 44220
2020-04-19 13:46:52 FLAPS EXTENSION 96 % 44220
2020-04-19 13:46:52 FLAPS EXTENSION 94 % 44220
2020-04-19 13:46:52 FLAPS EXTENSION 93 % 44220
2020-04-19 13:46:52 FLAPS EXTENSION 91 % 44220
2020-04-19 13:46:53 FLAPS EXTENSION 89 % 43220
2020-04-19 13:46:53 FLAPS EXTENSION 88 % 43220
2020-04-19 13:46:53 FLAPS EXTENSION 86 % 43220
2020-04-19 13:46:53 FLAPS EXTENSION 84 % 43220
2020-04-19 13:46:53 FLAPS EXTENSION 83 % 43220
2020-04-19 13:46:54 FLAPS EXTENSION 82 % 42220
2020-04-19 13:46:54 FLAPS EXTENSION 81 % 42220
2020-04-19 13:46:54 FLAPS EXTENSION 78 % 42220
2020-04-19 13:46:54 FLAPS EXTENSION 76 % 42220
2020-04-19 13:46:55 FLAPS EXTENSION 75 % 41220
2020-04-19 13:46:55 FLAPS EXTENSION 74 % 41220
2020-04-19 13:46:55 FLAPS EXTENSION 73 % 41220
2020-04-19 13:46:55 FLAPS EXTENSION 72 % 40220
2020-04-19 13:46:55 FLAPS EXTENSION 71 % 39220
2020-04-19 13:46:55 FLAPS EXTENSION 70 % 38220
2020-04-19 13:46:56 FLAPS EXTENSION 69 % 37220
2020-04-19 13:46:56 FLAPS EXTENSION 68 % 36220
2020-04-19 13:46:56 FLAPS EXTENSION 67 % 35220
2020-04-19 13:46:56 FLAPS EXTENSION 66 % 34220
2020-04-19 13:46:56 FLAPS EXTENSION 65 % 32220
2020-04-19 13:46:56 FLAPS EXTENSION 64 % 31220
2020-04-19 13:46:57 FLAPS EXTENSION 63 % 30220
2020-04-19 13:46:57 FLAPS EXTENSION 62 % 30219
2020-04-19 13:46:57 FLAPS EXTENSION 61 % 30219
2020-04-19 13:46:57 FLAPS EXTENSION 60 % 30219
2020-04-19 13:46:57 FLAPS EXTENSION 59 % 30219
2020-04-19 13:46:57 FLAPS EXTENSION 58 % 30219
2020-04-19 13:46:58 FLAPS EXTENSION 57 % 30219
2020-04-19 13:46:58 FLAPS EXTENSION 56 % 30219
2020-04-19 13:46:58 FLAPS EXTENSION 55 % 30219
2020-04-19 13:46:58 FLAPS EXTENSION 55 % 30219
2020-04-19 13:46:58 FLAPS EXTENSION 54 % 29219
2020-04-19 13:46:58 FLAPS EXTENSION 53 % 29219
2020-04-19 13:46:59 FLAPS EXTENSION 52 % 29219
2020-04-19 13:46:59 FLAPS EXTENSION 51 % 29219
2020-04-19 13:46:59 FLAPS EXTENSION 50 % 29219
2020-04-19 13:46:59 FLAPS EXTENSION 49 % 29220
2020-04-19 13:46:59 FLAPS EXTENSION 49 % 29220
2020-04-19 13:46:59 FLAPS EXTENSION 48 % 29220
2020-04-19 13:47:00 FLAPS EXTENSION 47 % 29220
2020-04-19 13:47:00 FLAPS EXTENSION 46 % 29220
2020-04-19 13:47:00 FLAPS EXTENSION 45 % 28220
2020-04-19 13:47:00 FLAPS EXTENSION 44 % 28220
2020-04-19 13:47:00 FLAPS EXTENSION 43 % 28220
2020-04-19 13:47:00 FLAPS EXTENSION 43 % 28220
2020-04-19 13:47:01 FLAPS EXTENSION 42 % 28220
2020-04-19 13:47:01 FLAPS EXTENSION 41 % 28220
2020-04-19 13:47:01 FLAPS EXTENSION 39 % 28220
2020-04-19 13:47:01 FLAPS EXTENSION 39 % 28220
2020-04-19 13:47:02 FLAPS EXTENSION 38 % 27220
2020-04-19 13:47:02 FLAPS EXTENSION 37 % 27220
2020-04-19 13:47:02 FLAPS EXTENSION 36 % 27220
2020-04-19 13:47:02 FLAPS EXTENSION 34 % 27220
2020-04-19 13:47:03 FLAPS EXTENSION 32 % 27220
2020-04-19 13:47:03 FLAPS EXTENSION 31 % 27220
2020-04-19 13:47:03 FLAPS EXTENSION 30 % 26220
2020-04-19 13:47:04 FLAPS EXTENSION 30 % 26219
2020-04-19 13:47:04 FLAPS EXTENSION 28 % 26219
2020-04-19 13:47:04 FLAPS EXTENSION 27 % 26219
2020-04-19 13:47:04 FLAPS EXTENSION 26 % 26219
2020-04-19 13:47:04 FLAPS EXTENSION 25 % 26219
2020-04-19 13:47:04 FLAPS EXTENSION 24 % 26219
2020-04-19 13:47:05 FLAPS EXTENSION 24 % 26219
2020-04-19 13:47:05 FLAPS EXTENSION 23 % 26219
2020-04-19 13:47:05 FLAPS EXTENSION 22 % 26219
2020-04-19 13:47:05 FLAPS EXTENSION 21 % 26219
2020-04-19 13:47:05 FLAPS EXTENSION 21 % 25219
2020-04-19 13:47:05 FLAPS EXTENSION 19 % 25219
2020-04-19 13:47:06 FLAPS EXTENSION 17 % 25219
2020-04-19 13:47:06 FLAPS EXTENSION 16 % 25219
2020-04-19 13:47:06 FLAPS EXTENSION 15 % 25219
2020-04-19 13:47:07 FLAPS EXTENSION 14 % 25219
2020-04-19 13:47:07 FLAPS EXTENSION 13 % 25219
2020-04-19 13:47:07 FLAPS EXTENSION 12 % 24220
2020-04-19 13:47:07 FLAPS EXTENSION 11 % 24220
2020-04-19 13:47:07 FLAPS EXTENSION 11 % 24220
2020-04-19 13:47:07 FLAPS EXTENSION 10 % 24220
2020-04-19 13:47:08 FLAPS EXTENSION 9 % 24220
2020-04-19 13:47:08 FLAPS EXTENSION 8 % 24220
2020-04-19 13:47:08 FLAPS EXTENSION 7 % 24220
2020-04-19 13:47:08 FLAPS EXTENSION 6 % 24220
2020-04-19 13:47:08 FLAPS EXTENSION 6 % 24220
2020-04-19 13:47:09 FLAPS EXTENSION 4 % 23220
2020-04-19 13:47:09 FLAPS EXTENSION 3 % 23220
2020-04-19 13:47:09 FLAPS EXTENSION 3 % 23220
2020-04-19 13:47:09 FLAPS EXTENSION 2 % 23220
2020-04-19 13:47:09 FLAPS EXTENSION 1 % 23220
2020-04-19 13:47:10 FLAPS EXTENSION 0 % 23220
2020-04-19 13:47:10 FLAPS EXTENSION 0 % 23220
2020-04-19 13:47:16 TAXI TO THE GATE20220
2020-04-19 13:48:08 TAXI SPEED ABOVE 25 KTS25220
2020-04-19 13:48:08 STOPPING ENGINE 2 25220
2020-04-19 13:55:01 STOPPING ENGINE 1 0219
 ACARS DATA
DATE IASGSALTITUDEFUEL CONSUMED OATFLIGHT STATUS
2020-04-19 13:08:320089125BOARDING
2020-04-19 13:09:320089425BOARDING
2020-04-19 13:10:320089825BOARDING
2020-04-19 13:11:3200891725BOARDING
2020-04-19 13:12:3200892625BOARDING
2020-04-19 13:13:3200893525BOARDING
2020-04-19 13:14:3200894325BOARDING
2020-04-19 13:15:3200895125BOARDING
2020-04-19 13:16:3200895925BOARDING
2020-04-19 13:17:3256896725BOARDING
2020-04-19 13:18:323839897525TAXI TO THE RWY
2020-04-19 13:19:321010898425TAXI TO THE RWY
2020-04-19 13:20:32111113909825TAXI TO THE RWY
2020-04-19 13:21:32106111133611922CLIMBING
2020-04-19 13:22:32133142266714019CLIMBING
2020-04-19 13:23:32147160392715516CLIMBING
2020-04-19 13:24:32170189495818014CLIMBING
2020-04-19 13:25:32211234500619213CRUISE
2020-04-19 13:26:32221241515821410CRUISE
2020-04-19 13:27:32226247512923010CRUISE
2020-04-19 13:28:32228248513324710CRUISE
2020-04-19 13:29:32228249513026310CRUISE
2020-04-19 13:30:32228249512528010CRUISE
2020-04-19 13:31:32229250510829610CRUISE
2020-04-19 13:32:32228248513431310CRUISE
2020-04-19 13:33:32230253510933010CRUISE
2020-04-19 13:34:32218242491934411CRUISE
2020-04-19 13:35:32221242425635612DESCEND
2020-04-19 13:36:32221241402837013CRUISE
2020-04-19 13:37:32224239402038713CRUISE
2020-04-19 13:38:32219231401539813CRUISE
2020-04-19 13:39:32206214402741613CRUISE
2020-04-19 13:40:32191201422742812CRUISE
2020-04-19 13:41:32152160320043615DESCEND
2020-04-19 13:42:32121121220444317DESCEND
2020-04-19 13:43:32102102178545518DESCEND
2020-04-19 13:44:32107101105546619DESCEND
2020-04-19 13:45:3210310148547920DESCEND
2020-04-19 13:46:32888721949220LANDED
2020-04-19 13:47:3212821950021TAXI TO THE GATE
2020-04-19 13:48:32141621950821TAXI TO THE GATE
2020-04-19 13:49:3291121951221TAXI TO THE GATE
2020-04-19 13:50:322021951621TAXI TO THE GATE
2020-04-19 13:51:322021952121TAXI TO THE GATE
2020-04-19 13:52:320021952521TAXI TO THE GATE
2020-04-19 13:53:320021952921TAXI TO THE GATE
2020-04-19 13:54:320021953421TAXI TO THE GATE
2020-04-19 13:55:320021953621TAXI TO THE GATE